Beaver, Oklahoma
Current Conditions -  °F | °C
As of 8:35 AM on Sunday 23 Nov 2014 (Local Time) from KLBL Reporting Station
Clear Clear  
Wind Chill: 35°   Ceiling: Unl
Heat Index: 43°   Visibility: 10mi
Dew Point: 34°   Wind: 18mph
Humidity: 70%   Direction: 340°NNW
Pressure: 29.55"   Gusts: NA
Location:  36.82°N, 100.52°W
Report Text: KLBL 231435Z AUTO 34016KT 10SM CLR 06/01 A2955 RMK AO1
Loading
Personal Weather Stations






























Interactive Weather Map New forecast layout! Learn more

10-Day Weather Forecast

Advertisements
Track Severe Weather on mobile